Time;durP1;ratioP1;P1;durP2;ratioP2;P2;SDS_P1;SDS_P2;PMS_P1;PMS_P2;Temp;Humidity;BMP_temperature;BMP_pressure;BME280_temperature;BME280_humidity;BME280_pressure;Samples;Min_cycle;Max_cycle;Signal;HPM_P1;HPM_P2
2022/07/04 00:00:21;;;;;;;6.93;2.37;;;;;;;;;;5034197;28;20392;-74
2022/07/04 00:02:48;;;;;;;3.07;2.00;;;;;;;;;;5034091;28;20429;-74
2022/07/04 00:05:14;;;;;;;8.60;1.70;;;;;;;;;;5033818;28;20849;-74
2022/07/04 00:07:41;;;;;;;4.67;2.10;;;;;;;;;;5034093;28;20420;-75
2022/07/04 00:10:08;;;;;;;3.57;2.00;;;;;;;;;;5033945;28;20859;-75
2022/07/04 00:12:34;;;;;;;6.50;1.90;;;;;;;;;;5033941;28;20538;-74
2022/07/04 00:15:00;;;;;;;3.47;1.80;;;;;;;;;;5033572;28;20524;-75
2022/07/04 00:17:26;;;;;;;3.60;1.90;;;;;;;;;;5016199;28;20450;-74
2022/07/04 00:19:52;;;;;;;6.93;2.10;;;;;;;;;;5032635;28;20483;-74
2022/07/04 00:22:19;;;;;;;3.97;2.00;;;;;;;;;;5033709;28;21012;-75
2022/07/04 00:24:45;;;;;;;3.80;2.60;;;;;;;;;;5031959;28;20776;-74
2022/07/04 00:27:11;;;;;;;4.23;2.40;;;;;;;;;;5033722;28;20483;-74
2022/07/04 00:29:37;;;;;;;3.63;2.17;;;;;;;;;;5033612;28;20471;-74
2022/07/04 00:32:03;;;;;;;2.80;1.90;;;;;;;;;;5033475;28;20869;-75
2022/07/04 00:34:30;;;;;;;5.83;2.10;;;;;;;;;;5031567;28;20456;-75
2022/07/04 00:36:56;;;;;;;5.83;2.03;;;;;;;;;;5033678;28;20409;-74
2022/07/04 00:39:22;;;;;;;5.13;2.30;;;;;;;;;;5033510;28;20762;-74
2022/07/04 00:41:48;;;;;;;2.30;1.83;;;;;;;;;;5033093;28;20414;-74
2022/07/04 00:44:17;;;;;;;4.37;2.70;;;;;;;;;;5032472;28;20400;-74
2022/07/04 00:46:44;;;;;;;7.77;2.60;;;;;;;;;;5033175;28;20412;-74
2022/07/04 00:49:10;;;;;;;4.40;2.07;;;;;;;;;;5033290;28;20836;-74
2022/07/04 00:51:40;;;;;;;3.73;2.53;;;;;;;;;;5033218;28;20499;-74
2022/07/04 00:54:07;;;;;;;3.33;2.20;;;;;;;;;;5032825;28;20457;-75
2022/07/04 00:56:35;;;;;;;2.83;2.63;;;;;;;;;;5032883;28;20770;-74
2022/07/04 00:59:01;;;;;;;18.03;3.77;;;;;;;;;;5033059;28;20829;-75
2022/07/04 01:01:27;;;;;;;2.77;2.37;;;;;;;;;;5033170;28;20417;-74
2022/07/04 01:03:54;;;;;;;5.60;2.80;;;;;;;;;;5031478;28;20410;-74
2022/07/04 01:06:20;;;;;;;2.57;2.37;;;;;;;;;;5031852;28;20507;-75
2022/07/04 01:08:46;;;;;;;5.73;2.20;;;;;;;;;;5032732;28;20410;-74
2022/07/04 01:11:13;;;;;;;8.27;2.57;;;;;;;;;;5033284;28;20906;-74
2022/07/04 01:13:43;;;;;;;4.73;2.40;;;;;;;;;;5032500;28;21027;-75
2022/07/04 01:16:09;;;;;;;3.53;2.37;;;;;;;;;;5032798;28;20441;-74
2022/07/04 01:18:35;;;;;;;4.60;2.13;;;;;;;;;;5032634;28;20417;-74
2022/07/04 01:21:02;;;;;;;3.53;2.30;;;;;;;;;;5032814;28;20434;-74
2022/07/04 01:23:28;;;;;;;5.37;1.90;;;;;;;;;;5032537;28;20444;-75
2022/07/04 01:25:54;;;;;;;5.00;2.57;;;;;;;;;;5032879;28;20422;-74
2022/07/04 01:28:21;;;;;;;3.73;2.30;;;;;;;;;;5032726;28;20414;-74
2022/07/04 01:30:47;;;;;;;4.00;2.83;;;;;;;;;;5032671;28;20441;-75
2022/07/04 01:33:13;;;;;;;6.53;3.10;;;;;;;;;;5032229;28;20899;-75
2022/07/04 01:35:39;;;;;;;3.00;2.63;;;;;;;;;;5032629;28;20425;-74
2022/07/04 01:38:05;;;;;;;3.67;2.27;;;;;;;;;;5031558;28;20479;-74
2022/07/04 01:40:31;;;;;;;2.17;1.93;;;;;;;;;;5032502;28;20462;-74
2022/07/04 01:43:00;;;;;;;4.00;2.80;;;;;;;;;;5032060;28;20749;-74
2022/07/04 01:45:26;;;;;;;6.70;3.17;;;;;;;;;;5031317;28;20433;-74
2022/07/04 01:47:52;;;;;;;3.60;2.47;;;;;;;;;;5032464;28;20459;-74
2022/07/04 01:50:19;;;;;;;4.60;2.37;;;;;;;;;;5032500;28;20413;-74
2022/07/04 01:52:45;;;;;;;3.57;2.43;;;;;;;;;;5032139;28;20449;-77
2022/07/04 01:55:11;;;;;;;4.40;2.03;;;;;;;;;;5034051;28;20425;-74
2022/07/04 01:57:38;;;;;;;6.20;2.40;;;;;;;;;;5036425;28;20483;-74
2022/07/04 02:02:52;;;;;;;4.10;2.10;;;;;;;;;;5036276;28;20975;-75
2022/07/04 02:05:19;;;;;;;2.13;1.70;;;;;;;;;;5036206;28;20441;-75
2022/07/04 02:07:45;;;;;;;4.93;1.93;;;;;;;;;;5036550;28;20401;-75
2022/07/04 02:10:11;;;;;;;4.40;2.37;;;;;;;;;;5036254;28;20431;-75
2022/07/04 02:15:22;;;;;;;1.77;1.60;;;;;;;;;;5036620;28;20447;-74
2022/07/04 02:17:48;;;;;;;5.80;2.07;;;;;;;;;;5036073;28;20450;-74
2022/07/04 02:20:14;;;;;;;3.53;1.90;;;;;;;;;;5036334;28;20748;-74
2022/07/04 02:22:41;;;;;;;6.13;1.70;;;;;;;;;;5036237;28;20437;-74
2022/07/04 02:25:07;;;;;;;2.67;2.30;;;;;;;;;;5035473;28;20429;-76
2022/07/04 02:27:33;;;;;;;3.13;2.23;;;;;;;;;;5036048;28;20455;-74
2022/07/04 02:29:59;;;;;;;3.83;1.60;;;;;;;;;;5036028;28;20953;-74
2022/07/04 02:32:25;;;;;;;2.93;2.17;;;;;;;;;;5035720;28;20468;-74
2022/07/04 02:34:51;;;;;;;3.93;1.73;;;;;;;;;;5035496;28;20415;-74
2022/07/04 02:37:17;;;;;;;2.70;2.20;;;;;;;;;;5035797;28;20417;-75
2022/07/04 02:39:43;;;;;;;2.63;2.20;;;;;;;;;;5035694;28;20835;-74
2022/07/04 02:42:09;;;;;;;2.63;1.90;;;;;;;;;;5035892;28;20440;-74
2022/07/04 02:44:35;;;;;;;8.30;1.90;;;;;;;;;;5035167;28;20870;-75
2022/07/04 02:47:01;;;;;;;4.53;2.23;;;;;;;;;;5035582;28;20433;-75
2022/07/04 02:49:28;;;;;;;2.73;2.00;;;;;;;;;;5034178;28;20441;-75
2022/07/04 02:51:54;;;;;;;2.77;1.90;;;;;;;;;;5035439;28;20414;-75
2022/07/04 02:54:20;;;;;;;2.40;2.10;;;;;;;;;;5035143;28;20943;-74
2022/07/04 02:56:46;;;;;;;3.83;2.20;;;;;;;;;;5033897;28;20442;-74
2022/07/04 02:59:12;;;;;;;3.33;2.70;;;;;;;;;;5033990;28;20942;-75
2022/07/04 03:01:38;;;;;;;2.30;1.90;;;;;;;;;;5035240;28;20425;-75
2022/07/04 03:04:04;;;;;;;3.60;1.80;;;;;;;;;;5035073;28;20416;-74
2022/07/04 03:06:30;;;;;;;3.27;2.17;;;;;;;;;;5034557;28;20473;-74
2022/07/04 03:08:56;;;;;;;4.00;2.10;;;;;;;;;;5035345;28;20405;-75
2022/07/04 03:11:23;;;;;;;4.17;2.20;;;;;;;;;;5035474;28;20432;-75
2022/07/04 03:13:48;;;;;;;6.60;2.50;;;;;;;;;;5034626;28;20488;-74
2022/07/04 03:16:15;;;;;;;3.67;2.60;;;;;;;;;;5034990;28;20452;-74
2022/07/04 03:18:41;;;;;;;2.80;1.77;;;;;;;;;;5035087;28;20453;-74
2022/07/04 03:21:07;;;;;;;3.27;1.70;;;;;;;;;;5035060;28;20492;-74
2022/07/04 03:23:34;;;;;;;2.50;2.30;;;;;;;;;;5034512;28;20465;-74
2022/07/04 03:26:00;;;;;;;7.23;2.40;;;;;;;;;;5034840;28;20934;-74
2022/07/04 03:28:26;;;;;;;2.97;2.33;;;;;;;;;;5034900;28;20488;-74
2022/07/04 03:30:52;;;;;;;4.10;2.80;;;;;;;;;;5035068;28;20420;-74
2022/07/04 03:33:18;;;;;;;3.17;1.90;;;;;;;;;;5034133;28;20524;-74
2022/07/04 03:35:44;;;;;;;2.70;1.83;;;;;;;;;;5034503;28;20469;-74
2022/07/04 03:38:10;;;;;;;3.43;2.53;;;;;;;;;;5034720;28;20417;-75
2022/07/04 03:40:38;;;;;;;3.67;2.17;;;;;;;;;;5034498;28;20886;-74
2022/07/04 03:43:05;;;;;;;6.53;2.00;;;;;;;;;;5033086;28;20417;-74
2022/07/04 03:45:31;;;;;;;2.63;2.43;;;;;;;;;;5032984;28;20972;-74
2022/07/04 03:47:57;;;;;;;4.40;2.50;;;;;;;;;;5034283;28;20425;-74
2022/07/04 03:50:23;;;;;;;2.90;2.20;;;;;;;;;;5034511;28;20841;-75
2022/07/04 03:52:49;;;;;;;3.93;2.53;;;;;;;;;;5034316;28;20540;-74
2022/07/04 03:55:15;;;;;;;4.33;2.10;;;;;;;;;;5033904;28;20429;-75
2022/07/04 03:57:41;;;;;;;3.20;2.60;;;;;;;;;;5034242;28;20410;-75
2022/07/04 04:00:07;;;;;;;4.70;2.70;;;;;;;;;;5034053;28;20409;-75
2022/07/04 04:02:34;;;;;;;6.70;2.57;;;;;;;;;;5034188;28;20413;-73
2022/07/04 04:07:44;;;;;;;7.13;2.93;;;;;;;;;;5034064;28;20819;-74
2022/07/04 04:10:10;;;;;;;6.87;3.20;;;;;;;;;;5033906;28;20990;-74
2022/07/04 04:12:36;;;;;;;2.90;2.70;;;;;;;;;;5032543;28;20464;-74
2022/07/04 04:15:02;;;;;;;7.03;3.43;;;;;;;;;;5032353;28;20429;-75
2022/07/04 04:17:28;;;;;;;3.17;2.87;;;;;;;;;;5034123;28;20440;-75
2022/07/04 04:19:54;;;;;;;4.33;2.83;;;;;;;;;;5016522;28;20930;-74
2022/07/04 04:22:20;;;;;;;2.80;2.60;;;;;;;;;;5032629;28;20409;-74
2022/07/04 04:24:46;;;;;;;7.23;2.97;;;;;;;;;;5033316;28;20421;-75
2022/07/04 04:27:12;;;;;;;5.00;2.87;;;;;;;;;;5033829;28;20413;-74
2022/07/04 04:29:38;;;;;;;4.90;2.97;;;;;;;;;;5033700;28;20417;-75
2022/07/04 04:32:05;;;;;;;5.97;2.87;;;;;;;;;;5033454;28;20539;-75
2022/07/04 04:34:31;;;;;;;5.23;3.10;;;;;;;;;;5031836;28;20508;-75
2022/07/04 04:36:57;;;;;;;4.00;3.03;;;;;;;;;;5033669;28;20504;-74
2022/07/04 04:39:23;;;;;;;4.00;3.07;;;;;;;;;;5033482;28;20459;-74
2022/07/04 04:41:49;;;;;;;4.00;3.00;;;;;;;;;;5033383;28;20950;-74
2022/07/04 04:44:15;;;;;;;7.00;3.30;;;;;;;;;;5032999;28;20504;-74
2022/07/04 04:46:41;;;;;;;3.80;3.00;;;;;;;;;;5033248;28;20495;-74
2022/07/04 04:49:07;;;;;;;4.90;3.23;;;;;;;;;;5033348;28;20423;-74
2022/07/04 04:51:33;;;;;;;6.10;3.40;;;;;;;;;;5031999;28;20450;-75
2022/07/04 04:53:59;;;;;;;7.10;3.97;;;;;;;;;;5032825;28;20459;-74
2022/07/04 04:56:24;;;;;;;4.23;3.20;;;;;;;;;;5032892;28;20480;-74
2022/07/04 04:58:50;;;;;;;5.97;3.60;;;;;;;;;;5033271;28;20429;-74
2022/07/04 05:01:16;;;;;;;5.80;3.73;;;;;;;;;;5033082;28;20895;-74
2022/07/04 05:03:42;;;;;;;4.67;3.40;;;;;;;;;;5032744;28;20462;-74
2022/07/04 05:06:09;;;;;;;5.33;4.13;;;;;;;;;;5033186;28;20923;-74
2022/07/04 05:08:35;;;;;;;3.70;3.40;;;;;;;;;;5032733;28;20452;-75
2022/07/04 05:11:01;;;;;;;5.37;3.60;;;;;;;;;;5032897;28;20392;-73
2022/07/04 05:13:26;;;;;;;4.30;3.90;;;;;;;;;;5031124;28;20523;-74
2022/07/04 05:15:52;;;;;;;5.70;3.50;;;;;;;;;;5032872;28;20463;-75
2022/07/04 05:18:18;;;;;;;7.23;3.60;;;;;;;;;;5032923;28;20448;-74
2022/07/04 05:20:44;;;;;;;5.50;3.80;;;;;;;;;;5032681;28;20941;-74
2022/07/04 05:23:11;;;;;;;7.67;3.80;;;;;;;;;;5032538;28;20459;-75
2022/07/04 05:25:37;;;;;;;8.00;4.20;;;;;;;;;;5031443;28;20468;-74
2022/07/04 05:28:03;;;;;;;4.17;3.77;;;;;;;;;;5032451;28;20413;-74
2022/07/04 05:30:29;;;;;;;6.60;3.40;;;;;;;;;;5031601;28;20766;-75
2022/07/04 05:32:58;;;;;;;3.77;3.03;;;;;;;;;;5032240;28;20530;-75
2022/07/04 05:35:24;;;;;;;9.50;3.70;;;;;;;;;;5032644;28;20476;-75
2022/07/04 05:37:50;;;;;;;6.97;3.60;;;;;;;;;;5032756;28;20409;-74
2022/07/04 05:40:16;;;;;;;3.63;3.20;;;;;;;;;;5032718;28;20731;-74
2022/07/04 05:42:42;;;;;;;6.33;3.33;;;;;;;;;;5031249;28;20810;-74
2022/07/04 05:45:08;;;;;;;9.40;2.97;;;;;;;;;;5032223;28;20445;-75
2022/07/04 05:47:34;;;;;;;3.47;3.17;;;;;;;;;;5032499;28;20403;-74
2022/07/04 05:50:00;;;;;;;4.27;3.30;;;;;;;;;;5032466;28;20426;-74
2022/07/04 05:52:27;;;;;;;4.60;3.60;;;;;;;;;;5031134;28;20460;-75
2022/07/04 05:54:53;;;;;;;9.27;4.03;;;;;;;;;;5030583;28;20452;-74
2022/07/04 05:57:18;;;;;;;7.63;3.10;;;;;;;;;;5032462;28;20421;-74
2022/07/04 05:59:45;;;;;;;4.70;3.20;;;;;;;;;;5032371;28;20782;-74
2022/07/04 06:02:11;;;;;;;6.87;3.20;;;;;;;;;;5032363;28;20417;-74
2022/07/04 06:04:37;;;;;;;8.70;3.50;;;;;;;;;;5031938;28;20965;-75
2022/07/04 06:07:03;;;;;;;3.93;3.30;;;;;;;;;;5032198;28;20774;-74
2022/07/04 06:09:29;;;;;;;6.30;3.37;;;;;;;;;;5032183;28;20417;-75
2022/07/04 06:11:55;;;;;;;4.17;2.60;;;;;;;;;;5032676;28;20472;-74
2022/07/04 06:14:21;;;;;;;4.03;3.13;;;;;;;;;;5031903;28;20482;-75
2022/07/04 06:16:47;;;;;;;8.47;3.20;;;;;;;;;;5032148;28;20957;-75
2022/07/04 06:19:13;;;;;;;5.47;3.20;;;;;;;;;;5032239;28;20463;-75
2022/07/04 06:21:39;;;;;;;3.73;2.73;;;;;;;;;;5031124;28;20414;-75
2022/07/04 06:24:05;;;;;;;4.87;3.10;;;;;;;;;;5032121;28;20487;-74
2022/07/04 06:26:31;;;;;;;5.60;3.07;;;;;;;;;;5032490;28;20430;-75
2022/07/04 06:28:57;;;;;;;4.20;2.60;;;;;;;;;;5032395;28;20420;-74
2022/07/04 06:31:23;;;;;;;7.33;2.87;;;;;;;;;;5032294;28;20416;-74
2022/07/04 06:36:34;;;;;;;5.33;2.57;;;;;;;;;;5032241;28;20467;-75
2022/07/04 06:39:00;;;;;;;3.53;2.17;;;;;;;;;;5030916;28;20401;-75
2022/07/04 06:41:27;;;;;;;4.80;2.20;;;;;;;;;;5034129;28;20405;-74
2022/07/04 06:43:54;;;;;;;3.57;2.53;;;;;;;;;;5035477;28;20400;-74
2022/07/04 06:46:20;;;;;;;8.20;2.60;;;;;;;;;;5034349;28;20420;-75
2022/07/04 06:48:46;;;;;;;6.27;2.00;;;;;;;;;;5035692;28;20504;-74
2022/07/04 06:51:13;;;;;;;5.30;2.03;;;;;;;;;;5035519;28;20959;-76
2022/07/04 06:53:40;;;;;;;3.30;1.80;;;;;;;;;;5035067;28;20550;-75
2022/07/04 06:56:06;;;;;;;2.00;1.83;;;;;;;;;;5035372;28;20464;-75
2022/07/04 06:58:32;;;;;;;2.73;1.43;;;;;;;;;;5035562;28;20424;-74
2022/07/04 07:00:58;;;;;;;2.83;1.60;;;;;;;;;;5035251;28;20479;-75
2022/07/04 07:03:24;;;;;;;3.20;2.00;;;;;;;;;;5033609;28;20413;-75
2022/07/04 07:05:50;;;;;;;1.97;1.77;;;;;;;;;;5035195;28;20429;-74
2022/07/04 07:08:17;;;;;;;3.80;1.50;;;;;;;;;;5035252;28;20409;-74
2022/07/04 07:10:43;;;;;;;3.10;1.20;;;;;;;;;;5033813;28;20897;-74
2022/07/04 07:13:10;;;;;;;4.57;1.40;;;;;;;;;;5034721;28;20440;-75
2022/07/04 07:15:36;;;;;;;3.30;1.17;;;;;;;;;;5035001;28;20408;-74
2022/07/04 07:18:03;;;;;;;1.87;0.90;;;;;;;;;;5035009;28;20918;-74
2022/07/04 07:20:29;;;;;;;2.13;0.87;;;;;;;;;;5033941;28;20781;-74
2022/07/04 07:22:55;;;;;;;2.90;1.47;;;;;;;;;;5034989;28;20407;-74
2022/07/04 07:25:21;;;;;;;3.10;1.40;;;;;;;;;;5034928;28;20407;-74
2022/07/04 07:27:47;;;;;;;2.10;1.13;;;;;;;;;;5034966;28;20459;-74
2022/07/04 07:30:13;;;;;;;1.63;0.90;;;;;;;;;;5034875;28;20395;-74
2022/07/04 07:32:39;;;;;;;2.03;0.80;;;;;;;;;;5034575;28;20547;-74
2022/07/04 07:35:05;;;;;;;4.47;0.90;;;;;;;;;;5033090;28;20412;-74
2022/07/04 07:37:31;;;;;;;4.73;1.00;;;;;;;;;;5034827;28;20380;-74
2022/07/04 07:39:57;;;;;;;2.37;0.90;;;;;;;;;;5034721;28;20686;-74
2022/07/04 07:42:24;;;;;;;1.97;1.17;;;;;;;;;;5034752;28;20413;-74
2022/07/04 07:44:50;;;;;;;5.77;1.00;;;;;;;;;;5034103;28;20399;-74
2022/07/04 07:47:16;;;;;;;4.40;1.40;;;;;;;;;;5034640;28;20409;-74
2022/07/04 07:49:43;;;;;;;1.50;0.70;;;;;;;;;;5034332;28;20417;-74
2022/07/04 07:52:08;;;;;;;1.20;1.00;;;;;;;;;;5034179;28;20412;-74
2022/07/04 07:54:35;;;;;;;0.90;0.80;;;;;;;;;;5034064;28;20798;-74
2022/07/04 07:57:01;;;;;;;1.13;0.60;;;;;;;;;;5034473;28;20483;-73
2022/07/04 07:59:27;;;;;;;1.00;0.70;;;;;;;;;;5033154;28;20472;-74
2022/07/04 08:01:53;;;;;;;3.07;0.77;;;;;;;;;;5034207;28;20417;-75
2022/07/04 08:04:34;;;;;;;1.40;0.73;;;;;;;;;;5033897;28;20858;-74
2022/07/04 08:07:00;;;;;;;1.63;0.63;;;;;;;;;;5034170;28;20505;-74
2022/07/04 08:09:26;;;;;;;1.37;0.73;;;;;;;;;;5034085;28;20388;-74
2022/07/04 08:11:52;;;;;;;0.80;0.60;;;;;;;;;;5033891;28;20865;-74
2022/07/04 08:14:18;;;;;;;1.60;0.60;;;;;;;;;;5033468;28;20570;-74
2022/07/04 08:16:44;;;;;;;1.37;0.70;;;;;;;;;;5035340;28;20426;-74
2022/07/04 08:19:10;;;;;;;0.90;0.67;;;;;;;;;;5034370;28;20418;-74
2022/07/04 08:21:36;;;;;;;1.10;0.77;;;;;;;;;;5033919;28;20412;-75
2022/07/04 08:24:02;;;;;;;5.80;0.73;;;;;;;;;;5033249;28;20511;-75
2022/07/04 08:26:28;;;;;;;3.10;0.80;;;;;;;;;;5033600;28;20429;-77
2022/07/04 08:28:57;;;;;;;2.00;0.80;;;;;;;;;;5033759;28;20766;-75
2022/07/04 08:31:23;;;;;;;2.80;0.70;;;;;;;;;;5033443;28;20510;-74
2022/07/04 08:33:49;;;;;;;1.40;0.73;;;;;;;;;;5033066;28;20533;-75
2022/07/04 08:36:15;;;;;;;3.73;0.70;;;;;;;;;;5033407;28;20926;-74
2022/07/04 08:38:41;;;;;;;6.93;1.00;;;;;;;;;;5032314;28;20455;-74
2022/07/04 08:41:07;;;;;;;2.10;0.90;;;;;;;;;;5033507;28;20452;-74
2022/07/04 08:43:36;;;;;;;1.23;0.77;;;;;;;;;;5033176;28;20584;-74
2022/07/04 08:46:06;;;;;;;4.10;1.00;;;;;;;;;;5033319;28;20541;-74
2022/07/04 08:48:33;;;;;;;2.60;0.90;;;;;;;;;;5033535;28;20509;-74
2022/07/04 08:51:09;;;;;;;3.40;1.13;;;;;;;;;;5033137;28;20416;-74
2022/07/04 08:53:39;;;;;;;4.47;1.10;;;;;;;;;;5032969;28;20889;-74
2022/07/04 08:58:50;;;;;;;2.87;0.93;;;;;;;;;;5033430;28;20441;-74
2022/07/04 09:01:17;;;;;;;3.30;0.90;;;;;;;;;;5033040;28;20452;-74
2022/07/04 09:03:43;;;;;;;3.93;0.90;;;;;;;;;;5032103;28;20409;-74
2022/07/04 09:06:10;;;;;;;1.83;0.97;;;;;;;;;;5032851;28;20432;-74
2022/07/04 09:08:37;;;;;;;3.03;0.80;;;;;;;;;;5033029;28;20480;-75
2022/07/04 09:11:04;;;;;;;3.57;0.90;;;;;;;;;;5033044;28;20502;-74
2022/07/04 09:13:30;;;;;;;0.80;0.70;;;;;;;;;;5032659;28;20546;-74
2022/07/04 09:15:56;;;;;;;4.90;1.03;;;;;;;;;;5032793;28;20777;-74
2022/07/04 09:18:33;;;;;;;6.70;1.37;;;;;;;;;;5033027;28;20408;-74
2022/07/04 09:21:00;;;;;;;1.60;0.97;;;;;;;;;;5031572;28;20415;-73
2022/07/04 09:23:31;;;;;;;4.07;0.90;;;;;;;;;;5031353;28;20417;-75
2022/07/04 09:26:13;;;;;;;4.00;0.90;;;;;;;;;;5032940;28;20461;-74
2022/07/04 09:28:40;;;;;;;5.27;1.00;;;;;;;;;;5033111;28;20416;-74
2022/07/04 09:31:19;;;;;;;3.50;1.20;;;;;;;;;;5032665;28;20418;-74
2022/07/04 09:33:51;;;;;;;2.43;0.90;;;;;;;;;;5031056;28;21000;-75
2022/07/04 09:36:19;;;;;;;4.73;1.30;;;;;;;;;;5032648;28;20837;-74
2022/07/04 09:38:45;;;;;;;2.70;0.97;;;;;;;;;;5032601;28;20909;-75
2022/07/04 09:41:29;;;;;;;3.67;0.90;;;;;;;;;;5031392;28;20497;-74
2022/07/04 09:43:59;;;;;;;6.33;1.10;;;;;;;;;;5032273;28;20413;-74
2022/07/04 09:46:25;;;;;;;3.60;1.33;;;;;;;;;;5032462;28;20472;-74
2022/07/04 09:48:52;;;;;;;2.90;1.10;;;;;;;;;;5032425;28;20781;-74
2022/07/04 09:51:38;;;;;;;1.53;1.00;;;;;;;;;;5032547;28;20788;-74
2022/07/04 09:54:19;;;;;;;3.83;1.13;;;;;;;;;;5028503;28;20469;-74
2022/07/04 09:56:46;;;;;;;1.80;1.00;;;;;;;;;;5032101;28;20433;-75
2022/07/04 09:59:12;;;;;;;7.67;0.73;;;;;;;;;;5031267;28;20941;-74
2022/07/04 10:01:42;;;;;;;7.80;1.10;;;;;;;;;;5032348;28;20406;-74
2022/07/04 10:04:09;;;;;;;2.47;0.97;;;;;;;;;;5031964;28;20968;-74
2022/07/04 10:06:35;;;;;;;2.20;0.90;;;;;;;;;;5032018;28;20441;-75
2022/07/04 10:09:09;;;;;;;2.70;0.90;;;;;;;;;;5032101;28;20412;-74
2022/07/04 10:11:36;;;;;;;6.00;0.93;;;;;;;;;;5032383;28;20425;-74
2022/07/04 10:14:03;;;;;;;4.60;0.90;;;;;;;;;;5031971;28;20992;-74
2022/07/04 10:16:30;;;;;;;2.93;0.73;;;;;;;;;;5034869;28;20495;-74
2022/07/04 10:18:56;;;;;;;3.67;1.00;;;;;;;;;;5036009;28;20763;-75
2022/07/04 10:21:23;;;;;;;2.50;0.90;;;;;;;;;;5035974;28;20416;-73
2022/07/04 10:23:51;;;;;;;3.73;0.83;;;;;;;;;;5034611;28;20423;-74
2022/07/04 10:26:21;;;;;;;3.50;1.37;;;;;;;;;;5036154;28;20469;-74
2022/07/04 10:28:48;;;;;;;2.50;0.87;;;;;;;;;;5035940;28;20424;-75
2022/07/04 10:31:15;;;;;;;3.30;1.00;;;;;;;;;;5035844;28;20419;-75
2022/07/04 10:33:43;;;;;;;2.20;0.80;;;;;;;;;;5035526;28;20457;-74
2022/07/04 10:36:15;;;;;;;4.60;1.30;;;;;;;;;;5035805;28;20455;-74
2022/07/04 10:38:47;;;;;;;1.77;0.90;;;;;;;;;;5036018;28;20460;-74
2022/07/04 10:41:14;;;;;;;2.43;0.90;;;;;;;;;;5035612;28;20413;-74
2022/07/04 10:43:49;;;;;;;4.53;1.00;;;;;;;;;;5034253;28;20431;-74
2022/07/04 10:46:15;;;;;;;2.50;1.07;;;;;;;;;;5035543;28;20464;-74
2022/07/04 10:48:58;;;;;;;3.50;1.00;;;;;;;;;;5035606;28;20414;-74
2022/07/04 10:51:37;;;;;;;4.03;1.33;;;;;;;;;;5035564;28;20414;-75
2022/07/04 10:54:08;;;;;;;3.00;1.13;;;;;;;;;;5035171;28;20492;-74
2022/07/04 10:56:40;;;;;;;2.63;0.83;;;;;;;;;;5035447;28;20417;-74
2022/07/04 10:59:10;;;;;;;5.00;1.20;;;;;;;;;;5035183;28;20952;-74
2022/07/04 11:01:37;;;;;;;2.20;1.00;;;;;;;;;;5035411;28;20401;-73
2022/07/04 11:04:03;;;;;;;1.60;0.93;;;;;;;;;;5034831;28;20470;-74
2022/07/04 11:06:35;;;;;;;1.87;0.77;;;;;;;;;;5035218;28;20434;-74
2022/07/04 11:09:20;;;;;;;1.87;0.80;;;;;;;;;;5035024;28;20420;-74
2022/07/04 11:11:57;;;;;;;2.03;0.97;;;;;;;;;;5035124;28;20502;-74
2022/07/04 11:14:43;;;;;;;2.13;0.90;;;;;;;;;;5034868;28;20472;-74
2022/07/04 11:17:10;;;;;;;1.50;0.87;;;;;;;;;;5035094;28;20425;-75
2022/07/04 11:19:36;;;;;;;2.50;0.80;;;;;;;;;;5034993;28;20406;-74
2022/07/04 11:22:04;;;;;;;4.33;0.97;;;;;;;;;;5035113;28;20512;-74
2022/07/04 11:24:31;;;;;;;1.70;0.93;;;;;;;;;;5034572;28;20428;-73
2022/07/04 11:26:57;;;;;;;2.87;0.90;;;;;;;;;;5034177;28;20910;-74
2022/07/04 11:29:24;;;;;;;1.57;1.13;;;;;;;;;;5034943;28;20452;-75
2022/07/04 11:31:51;;;;;;;1.77;0.93;;;;;;;;;;5034733;28;20440;-74
2022/07/04 11:34:17;;;;;;;2.60;0.97;;;;;;;;;;5034468;28;20472;-73
2022/07/04 11:36:44;;;;;;;1.90;0.90;;;;;;;;;;5034653;28;20428;-73
2022/07/04 11:39:12;;;;;;;2.33;0.97;;;;;;;;;;5033430;28;20409;-73
2022/07/04 11:47:16;;;;;;;1.60;0.70;;;;;;;;;;5034919;28;20397;-76
2022/07/04 11:50:02;;;;;;;5.57;0.90;;;;;;;;;;5034583;28;20414;-74
2022/07/04 11:52:30;;;;;;;2.80;1.10;;;;;;;;;;5034448;28;20453;-73
2022/07/04 11:54:57;;;;;;;2.03;1.10;;;;;;;;;;5034005;28;20941;-73
2022/07/04 11:57:24;;;;;;;2.17;1.00;;;;;;;;;;5033094;28;20499;-74
2022/07/04 12:00:00;;;;;;;1.90;0.87;;;;;;;;;;5032988;28;20417;-74
2022/07/04 12:02:28;;;;;;;1.07;0.70;;;;;;;;;;5034244;28;20468;-74
2022/07/04 12:04:54;;;;;;;2.37;0.77;;;;;;;;;;5033850;28;20429;-73
2022/07/04 12:07:21;;;;;;;1.80;0.80;;;;;;;;;;5033987;28;20424;-74
2022/07/04 12:09:48;;;;;;;1.67;0.70;;;;;;;;;;5032501;28;20922;-73
2022/07/04 12:12:17;;;;;;;2.70;1.00;;;;;;;;;;5033878;28;20406;-73
2022/07/04 12:15:01;;;;;;;3.90;0.93;;;;;;;;;;5033460;28;20500;-73
2022/07/04 12:17:45;;;;;;;1.60;0.70;;;;;;;;;;5033753;28;20503;-74
2022/07/04 12:20:13;;;;;;;1.60;0.80;;;;;;;;;;5033867;28;20452;-75
2022/07/04 12:22:43;;;;;;;1.40;0.90;;;;;;;;;;5033813;28;20448;-74
2022/07/04 12:25:22;;;;;;;3.20;1.10;;;;;;;;;;5033295;28;20488;-73
2022/07/04 12:27:56;;;;;;;2.50;1.10;;;;;;;;;;5033483;28;20410;-73
2022/07/04 12:30:22;;;;;;;3.27;0.90;;;;;;;;;;5033575;28;20470;-74
2022/07/04 12:32:50;;;;;;;1.37;1.03;;;;;;;;;;5033143;28;20472;-76
2022/07/04 12:35:36;;;;;;;1.60;0.70;;;;;;;;;;5033289;28;20425;-73
2022/07/04 12:38:03;;;;;;;2.10;0.87;;;;;;;;;;5024370;28;20433;-75
2022/07/04 12:40:29;;;;;;;3.30;0.90;;;;;;;;;;5033443;28;20883;-73
2022/07/04 12:42:56;;;;;;;1.40;0.83;;;;;;;;;;5033162;28;20891;-74
2022/07/04 12:45:22;;;;;;;2.10;1.03;;;;;;;;;;5032179;28;20447;-73
2022/07/04 12:47:49;;;;;;;2.83;0.90;;;;;;;;;;5033454;28;20480;-74
2022/07/04 12:50:15;;;;;;;2.20;1.00;;;;;;;;;;5033345;28;20460;-74
2022/07/04 12:52:42;;;;;;;1.70;1.00;;;;;;;;;;5033244;28;20466;-74
2022/07/04 12:55:11;;;;;;;3.07;0.90;;;;;;;;;;5031713;28;20438;-74
2022/07/04 12:57:38;;;;;;;2.20;0.90;;;;;;;;;;5033160;28;20424;-75
2022/07/04 13:00:04;;;;;;;2.10;0.60;;;;;;;;;;5033071;28;20433;-76
2022/07/04 13:02:30;;;;;;;4.00;1.17;;;;;;;;;;5032950;28;20410;-74
2022/07/04 13:04:56;;;;;;;1.87;1.10;;;;;;;;;;5032765;28;20444;-75
2022/07/04 13:07:23;;;;;;;2.73;1.13;;;;;;;;;;5033091;28;20471;-75
2022/07/04 13:09:49;;;;;;;2.03;0.80;;;;;;;;;;5031682;28;20419;-74
2022/07/04 13:12:24;;;;;;;1.77;0.93;;;;;;;;;;5032848;28;20974;-75
2022/07/04 13:14:50;;;;;;;2.80;1.20;;;;;;;;;;5032561;28;20944;-75
2022/07/04 13:17:16;;;;;;;2.43;0.90;;;;;;;;;;5033007;28;20413;-75
2022/07/04 13:19:42;;;;;;;1.20;0.70;;;;;;;;;;5032917;28;21074;-75
2022/07/04 13:22:08;;;;;;;4.10;1.10;;;;;;;;;;5031559;28;20523;-75
2022/07/04 13:24:34;;;;;;;1.93;1.10;;;;;;;;;;5031220;28;20750;-75
2022/07/04 13:27:00;;;;;;;3.27;1.27;;;;;;;;;;5015428;28;20421;-75
2022/07/04 13:29:26;;;;;;;1.87;1.00;;;;;;;;;;5032869;28;20435;-75
2022/07/04 13:31:52;;;;;;;2.90;1.00;;;;;;;;;;5032678;28;20437;-75
2022/07/04 13:34:18;;;;;;;4.57;0.90;;;;;;;;;;5031985;28;20469;-74
2022/07/04 13:36:45;;;;;;;2.60;0.90;;;;;;;;;;5032707;28;20909;-76
2022/07/04 13:39:11;;;;;;;3.37;0.97;;;;;;;;;;5032548;28;20457;-75
2022/07/04 13:41:37;;;;;;;3.57;1.20;;;;;;;;;;5032676;28;20427;-75
2022/07/04 13:44:04;;;;;;;2.30;1.20;;;;;;;;;;5032190;28;20417;-75
2022/07/04 13:46:31;;;;;;;1.43;1.07;;;;;;;;;;5032338;28;20461;-74
2022/07/04 13:48:57;;;;;;;2.93;0.90;;;;;;;;;;5032594;28;20820;-75
2022/07/04 13:51:23;;;;;;;2.57;1.20;;;;;;;;;;5036390;28;20427;-75
2022/07/04 13:53:49;;;;;;;4.97;0.93;;;;;;;;;;5036210;28;20462;-74
2022/07/04 13:56:18;;;;;;;2.53;0.97;;;;;;;;;;5036592;28;20429;-75
2022/07/04 13:58:45;;;;;;;3.10;0.97;;;;;;;;;;5036361;28;20403;-74
2022/07/04 14:01:11;;;;;;;1.53;0.80;;;;;;;;;;5036549;28;20414;-74
2022/07/04 14:03:37;;;;;;;3.00;0.90;;;;;;;;;;5034651;28;20425;-75
2022/07/04 14:06:03;;;;;;;1.90;1.00;;;;;;;;;;5036376;28;20434;-77
2022/07/04 14:08:29;;;;;;;1.53;1.00;;;;;;;;;;5036287;28;20405;-76
2022/07/04 14:10:55;;;;;;;3.03;1.20;;;;;;;;;;5036245;28;20509;-75
2022/07/04 14:13:21;;;;;;;2.30;0.93;;;;;;;;;;5035811;28;20553;-75
2022/07/04 14:15:47;;;;;;;1.93;0.93;;;;;;;;;;5036065;28;20424;-75
2022/07/04 14:18:13;;;;;;;1.27;0.70;;;;;;;;;;5036123;28;20409;-75
2022/07/04 14:20:40;;;;;;;1.97;1.17;;;;;;;;;;5035895;28;20402;-76
2022/07/04 14:23:06;;;;;;;1.80;1.00;;;;;;;;;;5034516;28;20900;-75
2022/07/04 14:25:33;;;;;;;2.20;1.20;;;;;;;;;;5035911;28;20444;-75
2022/07/04 14:27:59;;;;;;;3.10;0.80;;;;;;;;;;5036086;28;20442;-75
2022/07/04 14:30:25;;;;;;;1.23;0.80;;;;;;;;;;5035895;28;20517;-75
2022/07/04 14:32:51;;;;;;;1.80;1.00;;;;;;;;;;5035443;28;20518;-76
2022/07/04 14:35:17;;;;;;;2.60;1.33;;;;;;;;;;5035705;28;20501;-76
2022/07/04 14:37:43;;;;;;;2.23;1.00;;;;;;;;;;5035594;28;20420;-76
2022/07/04 14:40:10;;;;;;;1.57;0.80;;;;;;;;;;5035602;28;20493;-76
2022/07/04 14:42:36;;;;;;;1.10;0.67;;;;;;;;;;5035581;28;20420;-76
2022/07/04 14:45:02;;;;;;;3.07;1.10;;;;;;;;;;5035274;28;20499;-75
2022/07/04 14:47:31;;;;;;;1.53;0.73;;;;;;;;;;5035588;28;20421;-76
2022/07/04 14:49:57;;;;;;;2.30;1.07;;;;;;;;;;5035469;28;20410;-75
2022/07/04 14:52:23;;;;;;;2.27;1.03;;;;;;;;;;5035479;28;20403;-75
2022/07/04 14:54:49;;;;;;;2.00;0.93;;;;;;;;;;5034972;28;20430;-75
2022/07/04 14:57:15;;;;;;;1.67;1.10;;;;;;;;;;5035272;28;20416;-75
2022/07/04 14:59:41;;;;;;;2.60;1.00;;;;;;;;;;5035323;28;20843;-75
2022/07/04 15:02:07;;;;;;;2.73;1.43;;;;;;;;;;5034337;28;20546;-76